Time;durP1;ratioP1;P1;durP2;ratioP2;P2;SDS_P1;SDS_P2;PMS_P1;PMS_P2;Temp;Humidity;BMP_temperature;BMP_pressure;BME280_temperature;BME280_humidity;BME280_pressure;Samples;Min_cycle;Max_cycle;Signal;HPM_P1;HPM_P2
2022/10/13 00:01:28;;;;;;;1.45;0.77;;;;;;;25.98;37.31;101805.91;4997014;28;20033;-53
2022/10/13 00:03:56;;;;;;;2.50;0.45;;;;;;;25.94;37.39;101797.97;4996577;28;20141;-54
2022/10/13 00:06:26;;;;;;;1.35;0.50;;;;;;;25.92;37.28;101801.41;4979265;28;20042;-54
2022/10/13 00:08:55;;;;;;;3.05;0.98;;;;;;;25.93;37.29;101798.81;4996526;28;20121;-54
2022/10/13 00:11:26;;;;;;;2.50;0.70;;;;;;;25.90;37.39;101795.22;4979360;28;20032;-54
2022/10/13 00:13:58;;;;;;;0.93;0.40;;;;;;;25.91;37.18;101797.00;4996387;28;20058;-54
2022/10/13 00:16:26;;;;;;;1.30;0.60;;;;;;;25.92;37.31;101783.91;4996915;28;20029;-53
2022/10/13 00:18:55;;;;;;;2.53;0.52;;;;;;;25.91;37.47;101783.84;4996306;28;20104;-53
2022/10/13 00:21:26;;;;;;;2.33;0.60;;;;;;;25.91;37.20;101783.84;4996232;28;20031;-55
2022/10/13 00:23:55;;;;;;;1.65;0.68;;;;;;;25.86;37.21;101782.91;4996013;28;20065;-54
2022/10/13 00:26:25;;;;;;;1.77;0.50;;;;;;;25.85;37.27;101774.13;4996355;28;20026;-53
2022/10/13 00:28:55;;;;;;;1.90;0.60;;;;;;;25.89;37.36;101785.59;4996225;28;20443;-53
2022/10/13 00:31:26;;;;;;;1.60;0.65;;;;;;;25.90;37.23;101780.34;4996717;28;20022;-54
2022/10/13 00:33:54;;;;;;;1.90;0.70;;;;;;;25.91;37.31;101782.13;4996297;28;20377;-55
2022/10/13 00:36:24;;;;;;;2.42;0.90;;;;;;;25.83;37.26;101775.81;4996184;28;20026;-54
2022/10/13 00:38:53;;;;;;;2.47;0.70;;;;;;;25.86;37.43;101781.16;4979065;28;20023;-54
2022/10/13 00:41:22;;;;;;;1.42;0.60;;;;;;;25.86;37.39;101788.16;4995885;28;20018;-55
2022/10/13 00:43:55;;;;;;;2.28;0.93;;;;;;;25.90;37.17;101787.34;4995934;28;20085;-54
2022/10/13 00:46:27;;;;;;;4.85;1.02;;;;;;;25.88;37.48;101773.31;4996112;28;20031;-54
2022/10/13 00:48:57;;;;;;;3.08;1.10;;;;;;;25.87;37.24;101777.66;4996147;28;20477;-54
2022/10/13 00:51:29;;;;;;;2.25;0.65;;;;;;;25.84;37.71;101777.59;4977476;28;20030;-54
2022/10/13 00:53:58;;;;;;;2.55;0.70;;;;;;;25.84;37.41;101767.09;4996083;28;20038;-54
2022/10/13 00:56:28;;;;;;;1.73;0.60;;;;;;;25.84;37.30;101763.59;4995758;28;20058;-55
2022/10/13 00:58:57;;;;;;;1.15;0.55;;;;;;;25.81;37.54;101764.44;4996025;28;20022;-55
2022/10/13 01:01:26;;;;;;;3.53;0.88;;;;;;;25.79;37.56;101766.13;4995937;28;20022;-54
2022/10/13 01:03:54;;;;;;;0.77;0.40;;;;;;;25.79;37.81;101759.13;4995374;28;20042;-55
2022/10/13 01:06:23;;;;;;;1.70;0.68;;;;;;;25.83;37.51;101767.06;4995587;28;20105;-53
2022/10/13 01:08:53;;;;;;;1.90;0.68;;;;;;;25.83;37.54;101762.69;4978530;28;20037;-55
2022/10/13 01:11:32;;;;;;;2.67;0.63;;;;;;;25.80;37.61;101749.50;4995720;28;20109;-54
2022/10/13 01:14:10;;;;;;;1.95;0.65;;;;;;;25.84;37.71;101760.97;4978033;28;20030;-55
2022/10/13 01:16:45;;;;;;;1.08;0.52;;;;;;;25.83;37.40;101759.19;4995528;28;20101;-53
2022/10/13 01:19:51;;;;;;;1.52;0.68;;;;;;;25.80;37.72;101746.88;4995121;28;20503;-54
2022/10/13 01:22:27;;;;;;;2.22;0.68;;;;;;;25.83;37.54;101746.03;4985842;28;20042;-55
2022/10/13 01:25:10;;;;;;;2.33;0.63;;;;;;;25.81;37.39;101739.88;4995605;28;20057;-49
2022/10/13 01:27:50;;;;;;;2.30;0.60;;;;;;;25.78;37.74;101743.34;4995026;28;20041;-55
2022/10/13 01:30:18;;;;;;;3.10;0.90;;;;;;;25.78;37.67;101738.97;4995183;28;20031;-53
2022/10/13 01:33:24;;;;;;;2.20;0.60;;;;;;;25.77;37.57;101737.19;4977894;28;20384;-52
2022/10/13 01:36:04;;;;;;;2.78;0.95;;;;;;;25.81;37.83;101746.03;4994831;28;20070;-55
2022/10/13 01:38:59;;;;;;;1.77;0.60;;;;;;;25.81;37.63;101735.53;4994841;28;20027;-51
2022/10/13 01:41:36;;;;;;;3.03;0.60;;;;;;;25.79;37.47;101726.72;4994892;28;20060;-54
2022/10/13 01:44:11;;;;;;;1.48;0.70;;;;;;;25.78;37.84;101722.31;4977631;28;20026;-54
2022/10/13 01:46:40;;;;;;;2.15;0.68;;;;;;;25.80;37.52;101717.97;4994679;28;20113;-55
2022/10/13 01:49:14;;;;;;;3.17;0.90;;;;;;;25.80;37.78;101710.09;4995106;28;20026;-53
2022/10/13 01:51:43;;;;;;;1.20;0.55;;;;;;;25.79;37.82;101716.22;4977735;28;20040;-55
2022/10/13 01:54:11;;;;;;;2.13;0.80;;;;;;;25.70;37.86;101706.41;4977415;28;20460;-54
2022/10/13 01:56:40;;;;;;;2.15;0.70;;;;;;;25.75;37.96;101701.22;4994773;28;20030;-55
2022/10/13 01:59:12;;;;;;;2.72;0.93;;;;;;;25.68;37.91;101701.97;4994698;28;20030;-54
2022/10/13 02:01:44;;;;;;;1.08;0.60;;;;;;;25.66;38.09;101709.84;4994502;28;20500;-55
2022/10/13 02:04:31;;;;;;;2.67;0.73;;;;;;;25.72;37.60;101707.34;4994266;28;20050;-55
2022/10/13 02:07:10;;;;;;;2.08;0.57;;;;;;;25.65;37.84;101707.19;4994755;28;20093;-54
2022/10/13 02:10:03;;;;;;;2.20;0.60;;;;;;;25.65;37.77;101710.69;4960974;28;20046;-54
2022/10/13 02:12:37;;;;;;;2.08;0.70;;;;;;;25.70;37.83;101705.50;4977375;28;20067;-54
2022/10/13 02:15:07;;;;;;;2.13;0.50;;;;;;;25.65;37.86;101700.19;4994151;28;20026;-55
2022/10/13 02:17:36;;;;;;;1.83;0.75;;;;;;;25.60;37.90;101679.09;4977182;28;20061;-54
2022/10/13 02:20:07;;;;;;;2.08;0.65;;;;;;;25.68;37.44;101687.09;4994580;28;20027;-54
2022/10/13 02:22:42;;;;;;;3.75;1.40;;;;;;;25.70;37.85;101684.50;4994084;28;20038;-53
2022/10/13 02:25:11;;;;;;;1.48;0.88;;;;;;;25.66;37.93;101683.56;4994331;28;20109;-55
2022/10/13 02:27:40;;;;;;;2.40;0.68;;;;;;;25.68;37.91;101687.09;4994079;28;20106;-54
2022/10/13 02:30:09;;;;;;;1.88;0.70;;;;;;;25.64;37.94;101677.41;4976910;28;20484;-53
2022/10/13 02:32:37;;;;;;;1.65;0.50;;;;;;;25.56;38.21;101668.50;4994168;28;20050;-55
2022/10/13 02:35:06;;;;;;;1.77;0.40;;;;;;;25.63;38.13;101662.50;4994212;28;20089;-54
2022/10/13 02:37:35;;;;;;;2.20;0.50;;;;;;;25.62;38.04;101653.72;4993885;28;20106;-55
2022/10/13 02:40:03;;;;;;;2.63;0.70;;;;;;;25.65;38.14;101646.78;4993784;28;20097;-53
2022/10/13 02:42:32;;;;;;;2.13;0.70;;;;;;;25.63;37.98;101642.38;4994026;28;20022;-54
2022/10/13 02:45:01;;;;;;;2.47;0.65;;;;;;;25.59;38.30;101644.91;4993970;28;20129;-54
2022/10/13 02:47:29;;;;;;;4.63;1.15;;;;;;;25.61;37.95;101653.69;4994025;28;20476;-53
2022/10/13 02:49:58;;;;;;;1.70;0.63;;;;;;;25.62;37.88;101655.47;4993976;28;20408;-55
2022/10/13 02:52:26;;;;;;;3.58;0.85;;;;;;;25.57;38.20;101647.50;4993786;28;20397;-54
2022/10/13 02:54:55;;;;;;;2.60;0.85;;;;;;;25.59;38.22;101645.78;4976217;28;20072;-55
2022/10/13 02:57:23;;;;;;;2.20;0.60;;;;;;;25.62;37.99;101644.94;4993269;28;20037;-54
2022/10/13 02:59:52;;;;;;;1.50;0.60;;;;;;;25.59;37.94;101645.78;4993663;28;20110;-53
2022/10/13 03:02:21;;;;;;;2.53;0.90;;;;;;;25.57;38.17;101634.38;4993525;28;20498;-51
2022/10/13 03:04:49;;;;;;;2.33;0.88;;;;;;;25.59;38.30;101639.63;4993399;28;20060;-54
2022/10/13 03:07:18;;;;;;;2.50;0.70;;;;;;;25.57;38.39;101637.00;4976455;28;20388;-55
2022/10/13 03:09:47;;;;;;;1.70;0.68;;;;;;;25.61;37.98;101627.41;4993860;28;20444;-54
2022/10/13 03:12:15;;;;;;;2.67;0.85;;;;;;;25.59;38.11;101623.88;4993650;28;20490;-54
2022/10/13 03:14:44;;;;;;;3.25;1.10;;;;;;;25.58;38.25;101612.50;4993123;28;20438;-55
2022/10/13 03:17:12;;;;;;;2.35;0.70;;;;;;;25.58;37.89;101611.59;4993523;28;20069;-53
2022/10/13 03:19:41;;;;;;;2.15;0.60;;;;;;;25.55;38.17;101604.56;4993644;28;20108;-54
2022/10/13 03:22:13;;;;;;;3.03;0.60;;;;;;;25.58;38.29;101606.34;4992812;28;20031;-55
2022/10/13 03:24:41;;;;;;;1.17;0.50;;;;;;;25.60;38.22;101595.03;4993494;28;20034;-55
2022/10/13 03:27:10;;;;;;;2.92;0.63;;;;;;;25.54;38.25;101583.53;4993851;28;20053;-55
2022/10/13 03:29:39;;;;;;;2.35;0.80;;;;;;;25.53;38.17;101571.25;4993522;28;20360;-54
2022/10/13 03:32:07;;;;;;;1.15;0.47;;;;;;;25.51;38.35;101568.59;4993423;28;20031;-55
2022/10/13 03:34:36;;;;;;;1.65;0.52;;;;;;;25.42;38.34;101560.56;4975946;28;20042;-54
2022/10/13 03:37:05;;;;;;;2.38;0.52;;;;;;;25.48;38.53;101579.94;4993522;28;20023;-54
2022/10/13 03:39:33;;;;;;;2.70;0.60;;;;;;;25.51;38.24;101576.47;4993457;28;20110;-55
2022/10/13 03:42:02;;;;;;;1.83;0.60;;;;;;;25.53;38.23;101576.50;4993457;28;20033;-54
2022/10/13 03:44:31;;;;;;;1.70;0.68;;;;;;;25.47;38.20;101562.41;4993355;28;20026;-53
2022/10/13 03:47:00;;;;;;;2.05;0.68;;;;;;;25.41;38.36;101566.66;4993458;28;20113;-54
2022/10/13 03:49:28;;;;;;;2.78;0.93;;;;;;;25.45;38.52;101558.00;4993345;28;20046;-54
2022/10/13 03:51:57;;;;;;;2.35;0.70;;;;;;;25.48;38.42;101558.06;4993146;28;20037;-51
2022/10/13 03:54:26;;;;;;;1.77;0.60;;;;;;;25.47;38.35;101553.66;4993123;28;20030;-54
2022/10/13 03:56:54;;;;;;;2.95;0.75;;;;;;;25.48;38.51;101565.94;4993098;28;20033;-55
2022/10/13 03:59:23;;;;;;;3.33;0.85;;;;;;;25.45;38.54;101563.25;4993518;28;20023;-52
2022/10/13 04:01:51;;;;;;;1.42;0.45;;;;;;;25.44;38.54;101562.34;4993158;28;20164;-54
2022/10/13 04:04:20;;;;;;;2.30;0.50;;;;;;;25.42;38.31;101574.56;4992766;28;20050;-53
2022/10/13 04:06:48;;;;;;;3.13;0.73;;;;;;;25.47;38.29;101562.41;4993293;28;20370;-55
2022/10/13 04:09:17;;;;;;;3.38;0.90;;;;;;;25.46;38.41;101551.88;4993133;28;20033;-55
2022/10/13 04:11:46;;;;;;;4.00;0.80;;;;;;;25.47;38.62;101545.78;4992946;28;20027;-54
2022/10/13 04:14:14;;;;;;;2.88;0.80;;;;;;;25.50;38.13;101530.03;4993201;28;20022;-53
2022/10/13 04:16:43;;;;;;;1.20;0.50;;;;;;;25.43;38.73;101539.56;4993058;28;20033;-54
2022/10/13 04:19:14;;;;;;;2.30;0.90;;;;;;;25.47;38.53;101540.53;4993154;28;20031;-55
2022/10/13 04:21:44;;;;;;;2.53;0.60;;;;;;;25.44;38.62;101533.47;4993171;28;20041;-54
2022/10/13 04:24:15;;;;;;;1.17;0.65;;;;;;;25.45;38.47;101547.50;4992949;28;20427;-53
2022/10/13 04:26:45;;;;;;;3.90;0.90;;;;;;;25.44;38.69;101550.97;4996751;28;20093;-55
2022/10/13 04:29:13;;;;;;;3.28;1.40;;;;;;;25.42;38.53;101535.16;4996430;28;20034;-54
2022/10/13 04:31:42;;;;;;;2.28;0.50;;;;;;;25.48;38.26;101548.41;4996351;28;20037;-55
2022/10/13 04:34:11;;;;;;;1.50;0.52;;;;;;;25.44;38.59;101540.47;4996275;28;20038;-55
2022/10/13 04:36:40;;;;;;;1.73;0.57;;;;;;;25.43;38.70;101543.94;4996328;28;20031;-54
2022/10/13 04:39:09;;;;;;;1.20;0.43;;;;;;;25.44;38.57;101546.59;4996386;28;20027;-54
2022/10/13 04:41:38;;;;;;;2.45;0.65;;;;;;;25.25;38.55;101512.97;4996438;28;20034;-55
2022/10/13 04:44:06;;;;;;;3.00;0.90;;;;;;;25.40;38.67;101530.72;4996262;28;20130;-55
2022/10/13 04:46:35;;;;;;;3.72;1.08;;;;;;;25.38;38.64;101524.56;4995999;28;20089;-55
2022/10/13 04:49:03;;;;;;;1.08;0.57;;;;;;;25.45;38.41;101526.47;4995643;28;20475;-54
2022/10/13 04:51:32;;;;;;;2.33;0.82;;;;;;;25.40;38.29;101530.72;4995899;28;20061;-55
2022/10/13 04:54:01;;;;;;;1.52;0.63;;;;;;;25.42;38.36;101531.69;4996060;28;20061;-55
2022/10/13 04:56:30;;;;;;;2.63;0.80;;;;;;;25.48;38.60;101526.53;4996177;28;20029;-52
2022/10/13 04:58:58;;;;;;;3.58;1.08;;;;;;;25.47;38.26;101540.53;4996096;28;20022;-55
2022/10/13 05:01:26;;;;;;;2.17;0.70;;;;;;;25.46;38.46;101539.63;4995933;28;20435;-55
2022/10/13 05:03:57;;;;;;;2.90;0.90;;;;;;;25.44;38.58;101535.22;4995319;28;20093;-54
2022/10/13 05:06:29;;;;;;;4.78;1.05;;;;;;;25.40;38.74;101534.22;4995457;28;20036;-55
2022/10/13 05:08:56;;;;;;;3.25;1.00;;;;;;;25.42;38.66;101531.69;4995663;28;20035;-54
2022/10/13 05:11:26;;;;;;;2.20;0.88;;;;;;;25.43;38.52;101521.19;4995609;28;20072;-54
2022/10/13 05:13:55;;;;;;;1.63;0.50;;;;;;;25.39;38.77;101521.97;4995944;28;20372;-56
2022/10/13 05:16:24;;;;;;;3.28;0.70;;;;;;;25.32;38.75;101514.84;4995468;28;20029;-54
2022/10/13 05:18:54;;;;;;;2.97;0.90;;;;;;;25.37;38.70;101513.19;4995678;28;20030;-54
2022/10/13 05:21:25;;;;;;;3.20;0.95;;;;;;;25.36;38.57;101506.16;4995622;28;20034;-54
2022/10/13 05:23:54;;;;;;;1.45;0.55;;;;;;;25.33;38.79;101503.50;4995398;28;20377;-56
2022/10/13 05:26:27;;;;;;;4.13;0.63;;;;;;;25.31;38.59;101490.34;4995286;28;20053;-53
2022/10/13 05:29:00;;;;;;;2.83;0.70;;;;;;;25.26;38.80;101486.75;4995473;28;20101;-54
2022/10/13 05:31:30;;;;;;;1.48;0.90;;;;;;;25.30;38.85;101492.94;4995680;28;20026;-55
2022/10/13 05:33:59;;;;;;;2.90;0.88;;;;;;;25.30;38.68;101483.31;4995340;28;20022;-54
2022/10/13 05:36:30;;;;;;;2.65;1.13;;;;;;;25.32;38.80;101473.69;4994616;28;20089;-54
2022/10/13 05:39:01;;;;;;;2.70;1.05;;;;;;;25.41;38.68;101477.34;4995241;28;20026;-55
2022/10/13 05:41:30;;;;;;;2.35;1.00;;;;;;;25.40;38.61;101480.81;4977900;28;20053;-54
2022/10/13 05:44:02;;;;;;;2.20;1.00;;;;;;;25.42;38.75;101473.88;4994883;28;20022;-54
2022/10/13 05:46:30;;;;;;;4.15;1.30;;;;;;;25.44;38.57;101464.28;4994885;28;20430;-55
2022/10/13 05:48:59;;;;;;;2.85;1.02;;;;;;;25.45;38.87;101468.69;4994877;28;20088;-53
2022/10/13 05:51:32;;;;;;;2.85;0.80;;;;;;;25.47;38.76;101466.97;4994411;28;20042;-55
2022/10/13 05:54:11;;;;;;;2.97;1.20;;;;;;;25.41;38.73;101457.19;4995079;28;20030;-53
2022/10/13 05:57:15;;;;;;;4.22;1.13;;;;;;;25.43;38.63;101452.88;4995088;28;20070;-54
2022/10/13 05:59:49;;;;;;;4.22;1.42;;;;;;;25.47;38.63;101445.97;4988116;28;20492;-54
2022/10/13 06:02:19;;;;;;;6.90;1.33;;;;;;;25.46;38.90;101446.81;4994656;28;20489;-54
2022/10/13 06:04:49;;;;;;;5.00;1.38;;;;;;;25.47;38.76;101445.97;4994429;28;20074;-55
2022/10/13 06:07:18;;;;;;;8.40;1.10;;;;;;;25.46;38.79;101445.06;4977331;28;20037;-54
2022/10/13 06:09:46;;;;;;;4.47;1.33;;;;;;;25.46;38.95;101438.94;4994591;28;20037;-55
2022/10/13 06:12:15;;;;;;;11.45;1.20;;;;;;;25.43;39.07;101437.13;4994678;28;20085;-51
2022/10/13 06:14:44;;;;;;;4.13;1.50;;;;;;;25.49;38.86;101433.69;4994465;28;20019;-55
2022/10/13 06:17:12;;;;;;;4.75;1.08;;;;;;;25.49;38.86;101431.06;4994514;28;20027;-54
2022/10/13 06:19:41;;;;;;;4.43;1.20;;;;;;;25.48;38.91;101432.84;4994311;28;20113;-54
2022/10/13 06:22:10;;;;;;;6.78;1.55;;;;;;;25.52;39.01;101436.38;4977479;28;20022;-52
2022/10/13 06:24:38;;;;;;;3.55;1.27;;;;;;;25.58;38.75;101431.22;4994330;28;20014;-55
2022/10/13 06:27:07;;;;;;;4.90;1.35;;;;;;;25.51;38.86;101429.34;4994399;28;20041;-54
2022/10/13 06:29:35;;;;;;;9.98;1.85;;;;;;;25.52;38.85;101417.13;4976652;28;20095;-54
2022/10/13 06:32:04;;;;;;;3.55;1.20;;;;;;;25.54;38.53;101413.66;4993952;28;20033;-55
2022/10/13 06:34:33;;;;;;;3.75;1.58;;;;;;;25.45;38.90;101408.28;4993980;28;20438;-55
2022/10/13 06:37:01;;;;;;;5.30;1.30;;;;;;;25.50;39.03;101410.97;4976632;28;20483;-53
2022/10/13 06:39:29;;;;;;;4.65;1.27;;;;;;;25.51;39.08;101389.94;4994448;28;20391;-54
2022/10/13 06:41:57;;;;;;;5.32;1.10;;;;;;;25.49;39.04;101391.69;4976759;28;20496;-54
2022/10/13 06:44:26;;;;;;;5.10;1.33;;;;;;;25.45;38.89;101379.38;4994053;28;20030;-54
2022/10/13 06:46:53;;;;;;;4.78;1.17;;;;;;;25.46;39.04;101383.78;4994230;28;20023;-55
2022/10/13 06:49:24;;;;;;;4.93;1.38;;;;;;;25.43;39.02;101374.09;4975491;28;20030;-54
2022/10/13 06:51:53;;;;;;;3.85;1.23;;;;;;;25.51;38.86;101373.31;4993930;28;20030;-55
2022/10/13 06:54:21;;;;;;;7.03;1.20;;;;;;;25.48;38.88;101372.41;4993700;28;20018;-56
2022/10/13 06:56:50;;;;;;;2.97;1.15;;;;;;;25.51;38.99;101368.06;4993930;28;20380;-55
2022/10/13 06:59:18;;;;;;;5.32;1.02;;;;;;;25.50;38.84;101376.81;4993692;28;20476;-54
2022/10/13 07:01:48;;;;;;;3.38;1.25;;;;;;;25.53;38.90;101379.47;4993336;28;20023;-55
2022/10/13 07:04:17;;;;;;;3.58;1.15;;;;;;;25.46;39.20;101373.28;4993612;28;20048;-54
2022/10/13 07:06:45;;;;;;;4.20;1.20;;;;;;;25.46;39.21;101365.41;4993596;28;20112;-54
2022/10/13 07:09:14;;;;;;;3.58;1.20;;;;;;;25.43;39.05;101357.47;4993512;28;20447;-55
2022/10/13 07:11:45;;;;;;;3.70;1.23;;;;;;;25.50;38.98;101356.66;4993850;28;20360;-54
2022/10/13 07:14:14;;;;;;;3.97;1.30;;;;;;;25.51;39.28;101366.31;4993631;28;20476;-54
2022/10/13 07:16:42;;;;;;;5.30;1.33;;;;;;;25.52;39.03;101362.81;4993482;28;20042;-53
2022/10/13 07:19:11;;;;;;;3.90;1.27;;;;;;;25.50;39.14;101361.06;4976410;28;20035;-54
2022/10/13 07:21:39;;;;;;;3.65;1.38;;;;;;;25.52;39.29;101357.56;4976529;28;20034;-54
2022/10/13 07:24:08;;;;;;;4.40;1.23;;;;;;;25.51;38.86;101355.81;4993521;28;20054;-55
2022/10/13 07:26:37;;;;;;;5.75;1.80;;;;;;;25.50;39.33;101358.44;4993650;28;20037;-56
2022/10/13 07:29:05;;;;;;;3.15;1.20;;;;;;;25.54;39.03;101360.25;4993568;28;20038;-55
2022/10/13 07:31:34;;;;;;;2.92;1.17;;;;;;;25.52;39.03;101370.72;5058581;22;20054;-54
2022/10/13 07:34:03;;;;;;;5.25;1.70;;;;;;;25.52;39.27;101372.47;5013552;28;20088;-55
2022/10/13 07:36:32;;;;;;;6.80;1.48;;;;;;;25.47;39.08;101380.28;5013163;28;20108;-54
2022/10/13 07:39:02;;;;;;;4.97;1.60;;;;;;;25.50;39.08;101382.94;5013068;28;20084;-48
2022/10/13 07:41:31;;;;;;;3.63;1.33;;;;;;;25.51;39.23;101389.09;5013001;28;20017;-55
2022/10/13 07:43:59;;;;;;;3.70;1.33;;;;;;;25.49;39.46;101375.91;5013013;28;20110;-55
2022/10/13 07:46:28;;;;;;;4.72;1.67;;;;;;;25.53;39.25;101376.84;5012719;28;20022;-55
2022/10/13 07:48:56;;;;;;;4.20;1.42;;;;;;;25.57;39.02;101374.28;5012563;28;20040;-55
2022/10/13 07:51:25;;;;;;;3.70;1.20;;;;;;;25.54;38.95;101365.50;5012781;28;20025;-55
2022/10/13 07:53:54;;;;;;;6.93;1.55;;;;;;;25.51;39.36;101350.56;5012897;28;20022;-54
2022/10/13 07:56:22;;;;;;;3.30;1.20;;;;;;;25.54;38.97;101349.72;5012781;28;20399;-54
2022/10/13 07:58:51;;;;;;;4.88;1.42;;;;;;;25.52;39.28;101356.72;5012745;28;20033;-55
2022/10/13 08:01:19;;;;;;;5.18;1.55;;;;;;;25.54;39.56;101362.88;5016020;28;20029;-55
2022/10/13 08:03:48;;;;;;;4.55;1.55;;;;;;;25.62;39.23;101361.19;5016133;28;20085;-55
2022/10/13 08:06:16;;;;;;;6.28;1.40;;;;;;;25.55;39.11;101359.38;5016538;28;20079;-54
2022/10/13 08:08:45;;;;;;;5.80;1.38;;;;;;;25.51;39.32;101358.44;5016300;28;20376;-55
2022/10/13 08:11:15;;;;;;;4.40;1.40;;;;;;;25.45;39.47;101347.88;5016438;28;20026;-55
2022/10/13 08:13:46;;;;;;;6.63;1.60;;;;;;;25.54;39.60;101358.47;5016288;28;20034;-55
2022/10/13 08:16:15;;;;;;;5.00;1.33;;;;;;;25.41;39.70;101341.63;5016303;28;20025;-55
2022/10/13 08:18:43;;;;;;;6.13;1.65;;;;;;;25.53;39.71;101353.22;5016306;28;20038;-55
2022/10/13 08:21:16;;;;;;;3.63;1.38;;;;;;;25.51;39.53;101353.19;5016406;28;20036;-55
2022/10/13 08:23:45;;;;;;;6.57;1.80;;;;;;;25.52;39.86;101352.31;5016206;28;20021;-56
2022/10/13 08:26:25;;;;;;;5.82;1.50;;;;;;;25.51;39.61;101344.44;4993557;28;20341;-53
2022/10/13 08:28:52;;;;;;;7.43;1.50;;;;;;;25.50;39.64;101337.41;4977109;28;20031;-55
2022/10/13 08:31:20;;;;;;;5.68;1.90;;;;;;;25.37;39.97;101317.94;4999053;28;20131;-51
2022/10/13 08:33:50;;;;;;;3.25;1.40;;;;;;;25.49;39.83;101328.63;4995524;28;20077;-52
2022/10/13 08:36:19;;;;;;;4.82;1.75;;;;;;;25.47;39.66;101326.00;4978588;28;20487;-54
2022/10/13 08:38:46;;;;;;;5.32;1.77;;;;;;;25.46;40.11;101321.59;4993873;28;20455;-45
2022/10/13 08:41:17;;;;;;;6.70;1.77;;;;;;;25.44;39.77;101315.44;4994164;28;20077;-50
2022/10/13 08:43:50;;;;;;;3.90;1.40;;;;;;;25.51;39.55;101311.16;4995394;28;20037;-56
2022/10/13 08:46:26;;;;;;;6.13;1.55;;;;;;;25.51;39.91;101308.53;4992235;28;20551;-48
2022/10/13 08:48:55;;;;;;;3.97;1.20;;;;;;;25.53;39.63;101304.16;4994700;28;20034;-55
2022/10/13 08:51:24;;;;;;;3.88;1.50;;;;;;;25.52;39.59;101301.53;4995116;28;20022;-53
2022/10/13 08:53:52;;;;;;;6.30;1.70;;;;;;;25.53;40.10;101304.16;4995437;28;20022;-54
2022/10/13 08:56:26;;;;;;;6.13;1.30;;;;;;;25.54;39.75;101297.19;4995393;28;20478;-51
2022/10/13 08:58:55;;;;;;;3.38;1.23;;;;;;;25.41;39.96;101269.84;4991383;28;20117;-54
2022/10/13 09:01:27;;;;;;;7.20;1.88;;;;;;;25.51;40.08;101270.88;4994856;28;20030;-55
2022/10/13 09:04:31;;;;;;;3.13;1.20;;;;;;;25.54;39.84;101276.19;4978189;28;20271;-56
2022/10/13 09:07:13;;;;;;;3.50;1.42;;;;;;;25.52;39.86;101289.28;4992069;28;20038;-54
2022/10/13 09:09:41;;;;;;;6.82;1.92;;;;;;;25.53;39.69;101285.78;4981191;28;20120;-55
2022/10/13 09:12:13;;;;;;;4.38;1.30;;;;;;;25.44;40.20;101277.81;4993983;28;20026;-55
2022/10/13 09:14:40;;;;;;;5.00;1.90;;;;;;;25.47;39.98;101283.09;4994817;28;20022;-54
2022/10/13 09:17:28;;;;;;;5.32;1.52;;;;;;;25.45;39.92;101276.94;5000518;28;20053;-55
2022/10/13 09:20:01;;;;;;;3.63;1.20;;;;;;;25.51;39.91;101269.13;5015013;28;20029;-53
2022/10/13 09:22:33;;;;;;;4.22;1.77;;;;;;;25.51;39.88;101258.63;5015041;28;20036;-54
2022/10/13 09:25:08;;;;;;;3.10;1.15;;;;;;;25.55;39.73;101254.31;5015238;28;20356;-56
2022/10/13 09:27:57;;;;;;;5.20;1.23;;;;;;;25.54;40.10;101247.28;5014786;28;20069;-54
2022/10/13 09:30:48;;;;;;;4.40;1.55;;;;;;;25.55;39.91;101241.16;5009913;28;20038;-55
2022/10/13 09:33:24;;;;;;;5.78;1.77;;;;;;;25.59;39.75;101233.31;5015219;28;20034;-55
2022/10/13 09:36:12;;;;;;;6.13;1.77;;;;;;;25.55;39.99;101223.63;5014812;28;20088;-55
2022/10/13 09:38:42;;;;;;;4.80;1.38;;;;;;;25.55;39.69;101218.38;5014787;28;20030;-54
2022/10/13 09:41:13;;;;;;;4.38;1.60;;;;;;;25.54;39.90;101221.88;5014383;28;20117;-56
2022/10/13 09:43:42;;;;;;;5.70;1.65;;;;;;;25.55;39.74;101218.38;5014478;28;20037;-56
2022/10/13 09:46:14;;;;;;;3.22;1.40;;;;;;;25.54;39.92;101219.25;5014624;28;20033;-54
2022/10/13 09:48:44;;;;;;;1.75;1.08;;;;;;;25.52;40.05;101218.34;5014686;28;20029;-54
2022/10/13 09:51:33;;;;;;;3.63;1.42;;;;;;;25.56;39.86;101216.66;5014306;28;20113;-55
2022/10/13 09:54:02;;;;;;;2.65;1.33;;;;;;;25.58;39.59;101215.81;5014555;28;20026;-55
2022/10/13 09:56:51;;;;;;;4.43;1.20;;;;;;;25.53;39.94;101212.22;5014236;28;20080;-55
2022/10/13 09:59:33;;;;;;;2.40;1.17;;;;;;;25.54;40.07;101207.88;4996906;28;20049;-55
2022/10/13 10:02:13;;;;;;;3.45;1.33;;;;;;;25.55;39.62;101192.13;4996706;28;20037;-55
2022/10/13 10:04:42;;;;;;;3.35;1.67;;;;;;;25.54;40.04;101206.13;5014431;28;20105;-55
2022/10/13 10:07:14;;;;;;;3.38;1.10;;;;;;;25.56;39.81;101199.13;5014091;28;20057;-55
2022/10/13 10:09:49;;;;;;;3.42;1.13;;;;;;;25.52;40.06;101188.59;4996990;28;20109;-55
2022/10/13 10:12:21;;;;;;;2.75;1.13;;;;;;;25.55;39.96;101193.88;4996575;28;20106;-54
2022/10/13 10:14:50;;;;;;;3.28;1.08;;;;;;;25.57;40.11;101202.63;4997022;28;20064;-55
2022/10/13 10:17:22;;;;;;;6.63;1.00;;;;;;;25.53;40.33;101198.22;5013652;28;20096;-56
2022/10/13 10:20:28;;;;;;;4.50;1.02;;;;;;;25.50;40.36;101200.81;5014060;28;20025;-54
2022/10/13 10:23:31;;;;;;;2.38;0.95;;;;;;;25.48;40.51;101190.31;5012351;28;20084;-54
2022/10/13 10:26:18;;;;;;;5.07;1.05;;;;;;;25.44;40.43;101176.25;5013720;28;20079;-54
2022/10/13 10:28:51;;;;;;;1.73;0.60;;;;;;;25.56;40.09;101188.63;5007643;28;20041;-53
2022/10/13 10:31:42;;;;;;;5.88;1.15;;;;;;;25.54;40.22;101192.97;5013683;28;20046;-54
2022/10/13 10:34:48;;;;;;;3.65;1.30;;;;;;;25.53;40.31;101196.47;4987294;28;20121;-50
2022/10/13 10:37:25;;;;;;;2.10;0.90;;;;;;;25.56;40.57;101193.88;4983109;28;20459;-48
2022/10/13 10:39:55;;;;;;;2.90;1.13;;;;;;;25.60;40.40;101205.28;4994523;28;20504;-49
2022/10/13 10:42:41;;;;;;;1.50;0.75;;;;;;;25.61;40.39;101199.19;4992673;28;20018;-50
2022/10/13 10:45:17;;;;;;;2.28;1.00;;;;;;;25.65;40.48;101205.38;4975218;28;20106;-53
2022/10/13 10:47:47;;;;;;;2.00;0.95;;;;;;;25.67;40.36;101207.13;4990028;28;20022;-52
2022/10/13 10:50:17;;;;;;;2.20;0.82;;;;;;;25.65;40.63;101214.13;4989848;28;20026;-51
2022/10/13 10:52:48;;;;;;;1.42;0.70;;;;;;;25.66;41.59;101220.22;4991927;28;20121;-46
2022/10/13 10:55:23;;;;;;;2.30;0.93;;;;;;;25.58;41.03;101213.16;4976021;28;20085;-54
2022/10/13 10:58:13;;;;;;;1.45;0.60;;;;;;;25.62;41.01;101222.84;4989533;28;20034;-50
2022/10/13 11:01:05;;;;;;;1.35;0.80;;;;;;;25.62;40.84;101235.09;4985936;28;20062;-49
2022/10/13 11:03:48;;;;;;;2.38;0.80;;;;;;;25.55;40.96;101228.03;4985281;28;20040;-53
2022/10/13 11:06:17;;;;;;;2.45;0.98;;;;;;;25.62;41.13;101235.09;4992670;28;20042;-53
2022/10/13 11:08:47;;;;;;;3.28;1.15;;;;;;;25.63;41.19;101239.47;4992860;28;20035;-54
2022/10/13 11:11:24;;;;;;;2.85;0.88;;;;;;;25.66;41.03;101228.13;4994670;28;20029;-52
2022/10/13 11:13:55;;;;;;;1.65;0.80;;;;;;;25.65;40.85;101224.63;4997001;28;20045;-49
2022/10/13 11:16:59;;;;;;;1.77;1.00;;;;;;;25.65;41.21;101215.88;4975526;28;20077;-52
2022/10/13 11:19:30;;;;;;;1.67;1.00;;;;;;;25.71;40.80;101213.28;4975139;28;20419;-48
2022/10/13 11:21:59;;;;;;;1.92;0.90;;;;;;;25.75;41.03;101215.94;4971285;28;20050;-53
2022/10/13 11:24:47;;;;;;;1.92;0.80;;;;;;;25.68;41.04;101219.41;4992377;28;20411;-51
2022/10/13 11:27:15;;;;;;;2.58;0.80;;;;;;;25.72;41.14;101220.31;4991036;28;20038;-53
2022/10/13 11:29:45;;;;;;;3.85;1.13;;;;;;;25.69;41.62;101222.91;4992954;28;20480;-54
2022/10/13 11:35:06;;;;;;;1.45;0.75;;;;;;;25.78;40.66;101218.59;4990591;28;20557;-53
2022/10/13 11:37:54;;;;;;;4.72;1.13;;;;;;;25.75;40.65;101218.56;4992191;28;20027;-48
2022/10/13 11:40:41;;;;;;;2.85;1.05;;;;;;;25.78;40.59;101223.88;4993734;28;20039;-50
2022/10/13 11:43:24;;;;;;;2.45;1.00;;;;;;;25.74;41.18;101214.19;4989242;28;20035;-53
2022/10/13 11:46:26;;;;;;;2.33;0.80;;;;;;;25.70;41.19;101216.78;4996129;28;20029;-54
2022/10/13 11:49:16;;;;;;;2.35;0.65;;;;;;;25.73;41.20;101207.16;4988058;28;20473;-52
2022/10/13 11:52:00;;;;;;;5.78;0.85;;;;;;;25.73;41.21;101208.94;4974141;28;20088;-54